sensor_id;sensor_type;location;lat;lon;timestamp;P1;durP1;ratioP1;P2;durP2;ratioP2
13580;SDS011;6861;46.170;7.222;2023-11-21T00:00:40;2.33;;;1.15;;
13580;SDS011;6861;46.170;7.222;2023-11-21T00:03:08;3.63;;;1.05;;
13580;SDS011;6861;46.170;7.222;2023-11-21T00:05:39;2.45;;;0.93;;
13580;SDS011;6861;46.170;7.222;2023-11-21T00:08:08;4.50;;;1.15;;
13580;SDS011;6861;46.170;7.222;2023-11-21T00:10:37;4.97;;;1.27;;
13580;SDS011;6861;46.170;7.222;2023-11-21T00:13:05;3.40;;;0.70;;
13580;SDS011;6861;46.170;7.222;2023-11-21T00:15:34;3.00;;;1.10;;
13580;SDS011;6861;46.170;7.222;2023-11-21T00:18:02;2.70;;;0.93;;
13580;SDS011;6861;46.170;7.222;2023-11-21T00:20:31;1.85;;;0.88;;
13580;SDS011;6861;46.170;7.222;2023-11-21T00:23:01;3.72;;;1.15;;
13580;SDS011;6861;46.170;7.222;2023-11-21T00:25:30;4.63;;;1.30;;
13580;SDS011;6861;46.170;7.222;2023-11-21T00:27:59;9.35;;;1.40;;
13580;SDS011;6861;46.170;7.222;2023-11-21T00:30:28;3.45;;;1.00;;
13580;SDS011;6861;46.170;7.222;2023-11-21T00:32:57;4.10;;;1.30;;
13580;SDS011;6861;46.170;7.222;2023-11-21T00:35:26;3.10;;;1.17;;
13580;SDS011;6861;46.170;7.222;2023-11-21T00:37:55;3.90;;;1.27;;
13580;SDS011;6861;46.170;7.222;2023-11-21T00:40:25;4.00;;;1.08;;
13580;SDS011;6861;46.170;7.222;2023-11-21T00:42:54;2.30;;;0.98;;
13580;SDS011;6861;46.170;7.222;2023-11-21T00:45:23;3.40;;;1.13;;
13580;SDS011;6861;46.170;7.222;2023-11-21T00:47:52;3.53;;;1.00;;
13580;SDS011;6861;46.170;7.222;2023-11-21T00:50:21;3.22;;;1.20;;
13580;SDS011;6861;46.170;7.222;2023-11-21T00:52:50;3.13;;;1.33;;
13580;SDS011;6861;46.170;7.222;2023-11-21T00:55:19;3.92;;;1.13;;
13580;SDS011;6861;46.170;7.222;2023-11-21T00:57:49;2.92;;;0.90;;
13580;SDS011;6861;46.170;7.222;2023-11-21T01:00:17;3.40;;;1.20;;
13580;SDS011;6861;46.170;7.222;2023-11-21T01:02:46;3.30;;;1.33;;
13580;SDS011;6861;46.170;7.222;2023-11-21T01:05:15;2.85;;;1.10;;
13580;SDS011;6861;46.170;7.222;2023-11-21T01:07:43;2.88;;;1.00;;
13580;SDS011;6861;46.170;7.222;2023-11-21T01:10:11;4.95;;;1.13;;
13580;SDS011;6861;46.170;7.222;2023-11-21T01:12:40;4.80;;;1.00;;
13580;SDS011;6861;46.170;7.222;2023-11-21T01:15:10;3.03;;;0.80;;
13580;SDS011;6861;46.170;7.222;2023-11-21T01:17:39;2.83;;;1.00;;
13580;SDS011;6861;46.170;7.222;2023-11-21T01:20:10;5.78;;;1.20;;
13580;SDS011;6861;46.170;7.222;2023-11-21T01:22:40;4.80;;;1.23;;
13580;SDS011;6861;46.170;7.222;2023-11-21T01:25:10;3.72;;;0.95;;
13580;SDS011;6861;46.170;7.222;2023-11-21T01:27:37;2.47;;;0.90;;
13580;SDS011;6861;46.170;7.222;2023-11-21T01:30:06;3.58;;;1.20;;
13580;SDS011;6861;46.170;7.222;2023-11-21T01:32:38;2.92;;;1.25;;
13580;SDS011;6861;46.170;7.222;2023-11-21T01:35:08;2.47;;;0.90;;
13580;SDS011;6861;46.170;7.222;2023-11-21T01:37:37;3.55;;;1.13;;
13580;SDS011;6861;46.170;7.222;2023-11-21T01:40:06;3.30;;;1.25;;
13580;SDS011;6861;46.170;7.222;2023-11-21T01:42:40;4.70;;;1.35;;
13580;SDS011;6861;46.170;7.222;2023-11-21T01:45:10;4.00;;;1.50;;
13580;SDS011;6861;46.170;7.222;2023-11-21T01:47:41;3.00;;;1.40;;
13580;SDS011;6861;46.170;7.222;2023-11-21T01:50:13;3.67;;;1.08;;
13580;SDS011;6861;46.170;7.222;2023-11-21T01:52:45;3.67;;;1.00;;
13580;SDS011;6861;46.170;7.222;2023-11-21T01:55:15;3.40;;;1.13;;
13580;SDS011;6861;46.170;7.222;2023-11-21T01:57:54;4.57;;;1.15;;
13580;SDS011;6861;46.170;7.222;2023-11-21T02:00:23;1.33;;;0.98;;
13580;SDS011;6861;46.170;7.222;2023-11-21T02:02:54;3.33;;;1.10;;
13580;SDS011;6861;46.170;7.222;2023-11-21T02:05:23;3.85;;;1.20;;
13580;SDS011;6861;46.170;7.222;2023-11-21T02:07:52;3.72;;;1.25;;
13580;SDS011;6861;46.170;7.222;2023-11-21T02:10:21;2.30;;;1.05;;
13580;SDS011;6861;46.170;7.222;2023-11-21T02:12:50;3.33;;;1.23;;
13580;SDS011;6861;46.170;7.222;2023-11-21T02:15:19;4.85;;;1.10;;
13580;SDS011;6861;46.170;7.222;2023-11-21T02:17:48;3.03;;;1.00;;
13580;SDS011;6861;46.170;7.222;2023-11-21T02:20:20;5.10;;;0.95;;
13580;SDS011;6861;46.170;7.222;2023-11-21T02:22:53;3.70;;;1.25;;
13580;SDS011;6861;46.170;7.222;2023-11-21T02:25:25;4.50;;;1.30;;
13580;SDS011;6861;46.170;7.222;2023-11-21T02:27:55;1.73;;;1.00;;
13580;SDS011;6861;46.170;7.222;2023-11-21T02:30:24;5.05;;;1.10;;
13580;SDS011;6861;46.170;7.222;2023-11-21T02:32:54;6.00;;;1.38;;
13580;SDS011;6861;46.170;7.222;2023-11-21T02:35:24;5.40;;;1.08;;
13580;SDS011;6861;46.170;7.222;2023-11-21T02:37:55;2.90;;;1.30;;
13580;SDS011;6861;46.170;7.222;2023-11-21T02:40:23;4.35;;;1.20;;
13580;SDS011;6861;46.170;7.222;2023-11-21T02:42:53;2.25;;;1.00;;
13580;SDS011;6861;46.170;7.222;2023-11-21T02:45:24;3.83;;;1.15;;
13580;SDS011;6861;46.170;7.222;2023-11-21T02:47:52;4.80;;;1.00;;
13580;SDS011;6861;46.170;7.222;2023-11-21T02:50:24;2.47;;;1.10;;
13580;SDS011;6861;46.170;7.222;2023-11-21T02:52:55;6.10;;;1.10;;
13580;SDS011;6861;46.170;7.222;2023-11-21T02:55:27;4.70;;;1.10;;
13580;SDS011;6861;46.170;7.222;2023-11-21T02:57:55;5.10;;;0.98;;
13580;SDS011;6861;46.170;7.222;2023-11-21T03:00:24;3.00;;;0.82;;
13580;SDS011;6861;46.170;7.222;2023-11-21T03:02:53;2.97;;;0.95;;
13580;SDS011;6861;46.170;7.222;2023-11-21T03:05:23;6.20;;;1.30;;
13580;SDS011;6861;46.170;7.222;2023-11-21T03:07:52;3.55;;;1.10;;
13580;SDS011;6861;46.170;7.222;2023-11-21T03:10:22;4.05;;;1.25;;
13580;SDS011;6861;46.170;7.222;2023-11-21T03:12:50;3.75;;;1.10;;
13580;SDS011;6861;46.170;7.222;2023-11-21T03:15:19;3.47;;;1.00;;
13580;SDS011;6861;46.170;7.222;2023-11-21T03:17:47;5.72;;;1.30;;
13580;SDS011;6861;46.170;7.222;2023-11-21T03:20:17;3.53;;;1.20;;
13580;SDS011;6861;46.170;7.222;2023-11-21T03:22:45;2.70;;;0.98;;
13580;SDS011;6861;46.170;7.222;2023-11-21T03:25:14;3.53;;;1.00;;
13580;SDS011;6861;46.170;7.222;2023-11-21T03:27:45;3.92;;;1.38;;
13580;SDS011;6861;46.170;7.222;2023-11-21T03:30:14;3.13;;;1.20;;
13580;SDS011;6861;46.170;7.222;2023-11-21T03:32:43;5.13;;;1.15;;
13580;SDS011;6861;46.170;7.222;2023-11-21T03:35:12;2.92;;;1.27;;
13580;SDS011;6861;46.170;7.222;2023-11-21T03:37:40;2.75;;;1.10;;
13580;SDS011;6861;46.170;7.222;2023-11-21T03:40:11;1.65;;;1.00;;
13580;SDS011;6861;46.170;7.222;2023-11-21T03:42:39;1.85;;;1.20;;
13580;SDS011;6861;46.170;7.222;2023-11-21T03:45:10;3.85;;;1.88;;
13580;SDS011;6861;46.170;7.222;2023-11-21T03:47:39;6.30;;;1.58;;
13580;SDS011;6861;46.170;7.222;2023-11-21T03:50:09;5.43;;;1.92;;
13580;SDS011;6861;46.170;7.222;2023-11-21T03:52:38;4.40;;;1.90;;
13580;SDS011;6861;46.170;7.222;2023-11-21T03:55:07;9.02;;;2.30;;
13580;SDS011;6861;46.170;7.222;2023-11-21T03:57:37;5.07;;;2.03;;
13580;SDS011;6861;46.170;7.222;2023-11-21T04:00:06;6.63;;;1.98;;
13580;SDS011;6861;46.170;7.222;2023-11-21T04:02:38;4.38;;;2.00;;
13580;SDS011;6861;46.170;7.222;2023-11-21T04:05:07;4.30;;;2.00;;
13580;SDS011;6861;46.170;7.222;2023-11-21T04:07:36;3.95;;;1.75;;
13580;SDS011;6861;46.170;7.222;2023-11-21T04:10:06;6.97;;;1.83;;
13580;SDS011;6861;46.170;7.222;2023-11-21T04:12:39;3.50;;;1.75;;
13580;SDS011;6861;46.170;7.222;2023-11-21T04:15:08;4.10;;;1.70;;
13580;SDS011;6861;46.170;7.222;2023-11-21T04:17:39;4.30;;;1.83;;
13580;SDS011;6861;46.170;7.222;2023-11-21T04:20:08;2.65;;;1.55;;
13580;SDS011;6861;46.170;7.222;2023-11-21T04:22:37;5.13;;;1.63;;
13580;SDS011;6861;46.170;7.222;2023-11-21T04:25:12;4.10;;;1.75;;
13580;SDS011;6861;46.170;7.222;2023-11-21T04:27:43;7.25;;;1.40;;
13580;SDS011;6861;46.170;7.222;2023-11-21T04:30:12;4.88;;;1.63;;
13580;SDS011;6861;46.170;7.222;2023-11-21T04:32:43;7.60;;;4.00;;
13580;SDS011;6861;46.170;7.222;2023-11-21T04:35:11;6.97;;;1.70;;
13580;SDS011;6861;46.170;7.222;2023-11-21T04:37:41;5.35;;;1.52;;
13580;SDS011;6861;46.170;7.222;2023-11-21T04:40:10;8.80;;;3.67;;
13580;SDS011;6861;46.170;7.222;2023-11-21T04:42:39;8.30;;;4.00;;
13580;SDS011;6861;46.170;7.222;2023-11-21T04:45:08;6.05;;;2.50;;
13580;SDS011;6861;46.170;7.222;2023-11-21T04:47:39;7.35;;;2.80;;
13580;SDS011;6861;46.170;7.222;2023-11-21T04:50:10;3.72;;;1.65;;
13580;SDS011;6861;46.170;7.222;2023-11-21T04:52:38;4.07;;;1.83;;
13580;SDS011;6861;46.170;7.222;2023-11-21T04:55:07;6.15;;;1.70;;
13580;SDS011;6861;46.170;7.222;2023-11-21T04:57:37;3.72;;;2.10;;
13580;SDS011;6861;46.170;7.222;2023-11-21T05:00:09;6.65;;;2.00;;
13580;SDS011;6861;46.170;7.222;2023-11-21T05:02:39;5.18;;;1.90;;
13580;SDS011;6861;46.170;7.222;2023-11-21T05:05:11;3.38;;;1.50;;
13580;SDS011;6861;46.170;7.222;2023-11-21T05:07:41;8.68;;;2.55;;
13580;SDS011;6861;46.170;7.222;2023-11-21T05:10:09;7.40;;;2.15;;
13580;SDS011;6861;46.170;7.222;2023-11-21T05:12:41;3.47;;;1.95;;
13580;SDS011;6861;46.170;7.222;2023-11-21T05:15:12;3.95;;;2.30;;
13580;SDS011;6861;46.170;7.222;2023-11-21T05:17:43;10.43;;;7.00;;
13580;SDS011;6861;46.170;7.222;2023-11-21T05:20:14;11.85;;;7.45;;
13580;SDS011;6861;46.170;7.222;2023-11-21T05:22:47;10.35;;;5.25;;
13580;SDS011;6861;46.170;7.222;2023-11-21T05:25:16;13.98;;;7.40;;
13580;SDS011;6861;46.170;7.222;2023-11-21T05:27:45;15.68;;;9.60;;
13580;SDS011;6861;46.170;7.222;2023-11-21T05:30:14;20.23;;;9.90;;
13580;SDS011;6861;46.170;7.222;2023-11-21T05:32:42;15.75;;;8.60;;
13580;SDS011;6861;46.170;7.222;2023-11-21T05:35:14;10.20;;;5.18;;
13580;SDS011;6861;46.170;7.222;2023-11-21T05:37:44;12.88;;;6.40;;
13580;SDS011;6861;46.170;7.222;2023-11-21T05:40:14;9.82;;;6.80;;
13580;SDS011;6861;46.170;7.222;2023-11-21T05:42:43;9.93;;;6.53;;
13580;SDS011;6861;46.170;7.222;2023-11-21T05:45:12;8.38;;;4.38;;
13580;SDS011;6861;46.170;7.222;2023-11-21T05:47:41;6.45;;;3.22;;
13580;SDS011;6861;46.170;7.222;2023-11-21T05:50:10;4.68;;;2.75;;
13580;SDS011;6861;46.170;7.222;2023-11-21T05:52:43;3.60;;;2.13;;
13580;SDS011;6861;46.170;7.222;2023-11-21T05:55:13;7.63;;;2.15;;
13580;SDS011;6861;46.170;7.222;2023-11-21T05:57:42;6.10;;;2.25;;
13580;SDS011;6861;46.170;7.222;2023-11-21T06:00:13;5.65;;;2.35;;
13580;SDS011;6861;46.170;7.222;2023-11-21T06:02:48;3.45;;;1.70;;
13580;SDS011;6861;46.170;7.222;2023-11-21T06:05:21;4.50;;;1.92;;
13580;SDS011;6861;46.170;7.222;2023-11-21T06:07:53;5.97;;;1.88;;
13580;SDS011;6861;46.170;7.222;2023-11-21T06:10:26;3.97;;;1.50;;
13580;SDS011;6861;46.170;7.222;2023-11-21T06:12:55;3.13;;;1.48;;
13580;SDS011;6861;46.170;7.222;2023-11-21T06:15:28;5.72;;;1.92;;
13580;SDS011;6861;46.170;7.222;2023-11-21T06:17:57;5.60;;;1.75;;
13580;SDS011;6861;46.170;7.222;2023-11-21T06:20:26;5.82;;;1.70;;
13580;SDS011;6861;46.170;7.222;2023-11-21T06:22:56;4.70;;;1.90;;
13580;SDS011;6861;46.170;7.222;2023-11-21T06:25:24;7.07;;;2.53;;
13580;SDS011;6861;46.170;7.222;2023-11-21T06:27:53;6.10;;;2.63;;
13580;SDS011;6861;46.170;7.222;2023-11-21T06:30:23;5.63;;;2.35;;
13580;SDS011;6861;46.170;7.222;2023-11-21T06:32:51;6.28;;;2.50;;
13580;SDS011;6861;46.170;7.222;2023-11-21T06:35:20;11.48;;;5.03;;
13580;SDS011;6861;46.170;7.222;2023-11-21T06:37:49;4.60;;;2.60;;
13580;SDS011;6861;46.170;7.222;2023-11-21T06:40:20;6.90;;;3.90;;
13580;SDS011;6861;46.170;7.222;2023-11-21T06:42:48;4.50;;;2.90;;
13580;SDS011;6861;46.170;7.222;2023-11-21T06:45:18;11.38;;;3.30;;
13580;SDS011;6861;46.170;7.222;2023-11-21T06:47:48;6.03;;;2.75;;
13580;SDS011;6861;46.170;7.222;2023-11-21T06:50:27;10.02;;;3.10;;
13580;SDS011;6861;46.170;7.222;2023-11-21T06:52:55;6.90;;;2.88;;
13580;SDS011;6861;46.170;7.222;2023-11-21T06:55:25;9.15;;;3.17;;
13580;SDS011;6861;46.170;7.222;2023-11-21T06:57:54;10.50;;;3.30;;
13580;SDS011;6861;46.170;7.222;2023-11-21T07:00:22;8.98;;;3.08;;
13580;SDS011;6861;46.170;7.222;2023-11-21T07:02:50;5.72;;;2.55;;
13580;SDS011;6861;46.170;7.222;2023-11-21T07:05:19;7.50;;;2.25;;
13580;SDS011;6861;46.170;7.222;2023-11-21T07:07:48;7.35;;;2.78;;
13580;SDS011;6861;46.170;7.222;2023-11-21T07:10:17;6.45;;;2.60;;
13580;SDS011;6861;46.170;7.222;2023-11-21T07:12:48;5.72;;;2.63;;
13580;SDS011;6861;46.170;7.222;2023-11-21T07:15:18;5.28;;;3.10;;
13580;SDS011;6861;46.170;7.222;2023-11-21T07:17:46;10.40;;;4.32;;
13580;SDS011;6861;46.170;7.222;2023-11-21T07:20:15;12.38;;;6.85;;
13580;SDS011;6861;46.170;7.222;2023-11-21T07:22:44;11.07;;;5.28;;
13580;SDS011;6861;46.170;7.222;2023-11-21T07:25:13;10.77;;;4.43;;
13580;SDS011;6861;46.170;7.222;2023-11-21T07:27:41;9.07;;;4.10;;
13580;SDS011;6861;46.170;7.222;2023-11-21T07:30:13;11.88;;;4.60;;
13580;SDS011;6861;46.170;7.222;2023-11-21T07:32:42;12.88;;;4.70;;
13580;SDS011;6861;46.170;7.222;2023-11-21T07:35:17;10.85;;;5.65;;
13580;SDS011;6861;46.170;7.222;2023-11-21T07:37:46;10.98;;;5.55;;
13580;SDS011;6861;46.170;7.222;2023-11-21T07:40:24;11.68;;;5.97;;
13580;SDS011;6861;46.170;7.222;2023-11-21T07:42:56;9.40;;;4.72;;
13580;SDS011;6861;46.170;7.222;2023-11-21T07:45:26;12.93;;;4.03;;
13580;SDS011;6861;46.170;7.222;2023-11-21T07:47:55;11.93;;;6.28;;
13580;SDS011;6861;46.170;7.222;2023-11-21T07:50:24;11.77;;;5.38;;
13580;SDS011;6861;46.170;7.222;2023-11-21T07:52:53;11.07;;;5.20;;
13580;SDS011;6861;46.170;7.222;2023-11-21T07:55:22;9.50;;;4.32;;
13580;SDS011;6861;46.170;7.222;2023-11-21T07:57:51;9.85;;;5.57;;
13580;SDS011;6861;46.170;7.222;2023-11-21T08:00:19;8.50;;;5.15;;
13580;SDS011;6861;46.170;7.222;2023-11-21T08:02:49;6.47;;;4.35;;
13580;SDS011;6861;46.170;7.222;2023-11-21T08:05:18;9.68;;;4.38;;
13580;SDS011;6861;46.170;7.222;2023-11-21T08:08:00;6.35;;;3.83;;
13580;SDS011;6861;46.170;7.222;2023-11-21T08:10:28;7.55;;;3.25;;
13580;SDS011;6861;46.170;7.222;2023-11-21T08:12:57;7.70;;;2.97;;
13580;SDS011;6861;46.170;7.222;2023-11-21T08:15:25;8.50;;;4.20;;
13580;SDS011;6861;46.170;7.222;2023-11-21T08:17:55;8.13;;;3.55;;
13580;SDS011;6861;46.170;7.222;2023-11-21T08:20:24;9.52;;;4.40;;
13580;SDS011;6861;46.170;7.222;2023-11-21T08:22:52;11.10;;;3.70;;
13580;SDS011;6861;46.170;7.222;2023-11-21T08:25:23;8.55;;;2.70;;
13580;SDS011;6861;46.170;7.222;2023-11-21T08:27:52;2.88;;;1.52;;
13580;SDS011;6861;46.170;7.222;2023-11-21T08:30:20;4.75;;;1.75;;
13580;SDS011;6861;46.170;7.222;2023-11-21T08:32:50;4.18;;;1.58;;
13580;SDS011;6861;46.170;7.222;2023-11-21T08:35:22;3.95;;;1.20;;
13580;SDS011;6861;46.170;7.222;2023-11-21T08:37:51;5.97;;;2.13;;
13580;SDS011;6861;46.170;7.222;2023-11-21T08:40:21;8.10;;;3.17;;
13580;SDS011;6861;46.170;7.222;2023-11-21T08:42:50;8.88;;;3.67;;
13580;SDS011;6861;46.170;7.222;2023-11-21T08:45:19;9.90;;;4.07;;
13580;SDS011;6861;46.170;7.222;2023-11-21T08:47:48;11.80;;;5.50;;
13580;SDS011;6861;46.170;7.222;2023-11-21T08:50:17;7.05;;;3.65;;
13580;SDS011;6861;46.170;7.222;2023-11-21T08:52:47;10.73;;;3.45;;
13580;SDS011;6861;46.170;7.222;2023-11-21T08:55:16;7.03;;;3.60;;
13580;SDS011;6861;46.170;7.222;2023-11-21T08:57:46;7.63;;;3.53;;
13580;SDS011;6861;46.170;7.222;2023-11-21T09:00:14;8.13;;;3.60;;
13580;SDS011;6861;46.170;7.222;2023-11-21T09:02:44;6.75;;;3.28;;
13580;SDS011;6861;46.170;7.222;2023-11-21T09:05:13;7.85;;;3.22;;
13580;SDS011;6861;46.170;7.222;2023-11-21T09:07:42;5.97;;;3.10;;
13580;SDS011;6861;46.170;7.222;2023-11-21T09:10:14;6.13;;;2.90;;
13580;SDS011;6861;46.170;7.222;2023-11-21T09:12:42;5.28;;;2.83;;
13580;SDS011;6861;46.170;7.222;2023-11-21T09:15:11;6.57;;;3.08;;
13580;SDS011;6861;46.170;7.222;2023-11-21T09:17:40;8.77;;;3.03;;
13580;SDS011;6861;46.170;7.222;2023-11-21T09:20:10;12.75;;;2.75;;
13580;SDS011;6861;46.170;7.222;2023-11-21T09:22:39;6.60;;;3.10;;
13580;SDS011;6861;46.170;7.222;2023-11-21T09:25:08;5.10;;;2.17;;
13580;SDS011;6861;46.170;7.222;2023-11-21T09:27:38;4.28;;;2.22;;
13580;SDS011;6861;46.170;7.222;2023-11-21T09:30:07;4.75;;;2.08;;
13580;SDS011;6861;46.170;7.222;2023-11-21T09:32:37;4.47;;;2.20;;
13580;SDS011;6861;46.170;7.222;2023-11-21T09:35:08;3.88;;;1.35;;
13580;SDS011;6861;46.170;7.222;2023-11-21T09:37:37;4.20;;;1.55;;
13580;SDS011;6861;46.170;7.222;2023-11-21T09:40:06;4.25;;;1.35;;
13580;SDS011;6861;46.170;7.222;2023-11-21T09:42:43;6.78;;;1.58;;
13580;SDS011;6861;46.170;7.222;2023-11-21T09:45:17;3.05;;;1.35;;
13580;SDS011;6861;46.170;7.222;2023-11-21T09:47:52;4.45;;;1.35;;
13580;SDS011;6861;46.170;7.222;2023-11-21T09:50:22;3.38;;;1.27;;
13580;SDS011;6861;46.170;7.222;2023-11-21T09:52:57;4.20;;;1.20;;
13580;SDS011;6861;46.170;7.222;2023-11-21T09:55:34;2.70;;;1.10;;
13580;SDS011;6861;46.170;7.222;2023-11-21T09:58:05;7.13;;;1.10;;
13580;SDS011;6861;46.170;7.222;2023-11-21T10:00:34;2.92;;;1.00;;
13580;SDS011;6861;46.170;7.222;2023-11-21T10:03:03;2.80;;;0.90;;
13580;SDS011;6861;46.170;7.222;2023-11-21T10:05:31;4.93;;;1.00;;
13580;SDS011;6861;46.170;7.222;2023-11-21T10:08:01;2.58;;;0.88;;
13580;SDS011;6861;46.170;7.222;2023-11-21T10:10:29;1.63;;;0.80;;
13580;SDS011;6861;46.170;7.222;2023-11-21T10:13:01;2.97;;;1.00;;
13580;SDS011;6861;46.170;7.222;2023-11-21T10:15:34;3.25;;;1.30;;
13580;SDS011;6861;46.170;7.222;2023-11-21T10:18:04;3.17;;;0.80;;
13580;SDS011;6861;46.170;7.222;2023-11-21T10:20:36;3.35;;;0.90;;
13580;SDS011;6861;46.170;7.222;2023-11-21T10:23:05;2.17;;;1.00;;
13580;SDS011;6861;46.170;7.222;2023-11-21T10:25:34;2.88;;;0.73;;
13580;SDS011;6861;46.170;7.222;2023-11-21T10:28:03;2.35;;;0.90;;
13580;SDS011;6861;46.170;7.222;2023-11-21T10:30:35;2.28;;;0.70;;
13580;SDS011;6861;46.170;7.222;2023-11-21T10:33:06;2.15;;;1.00;;
13580;SDS011;6861;46.170;7.222;2023-11-21T10:35:39;2.30;;;0.80;;
13580;SDS011;6861;46.170;7.222;2023-11-21T10:38:13;1.77;;;0.90;;
13580;SDS011;6861;46.170;7.222;2023-11-21T10:40:42;4.28;;;1.00;;
13580;SDS011;6861;46.170;7.222;2023-11-21T10:43:13;3.85;;;1.00;;
13580;SDS011;6861;46.170;7.222;2023-11-21T10:45:43;2.83;;;0.95;;
13580;SDS011;6861;46.170;7.222;2023-11-21T10:48:12;2.45;;;0.80;;
13580;SDS011;6861;46.170;7.222;2023-11-21T10:50:43;2.45;;;1.00;;
13580;SDS011;6861;46.170;7.222;2023-11-21T10:53:13;4.45;;;1.00;;
13580;SDS011;6861;46.170;7.222;2023-11-21T10:55:42;2.95;;;0.80;;
13580;SDS011;6861;46.170;7.222;2023-11-21T10:58:13;3.35;;;0.98;;
13580;SDS011;6861;46.170;7.222;2023-11-21T11:00:44;2.38;;;1.00;;
13580;SDS011;6861;46.170;7.222;2023-11-21T11:03:13;1.73;;;0.73;;
13580;SDS011;6861;46.170;7.222;2023-11-21T11:05:43;2.78;;;1.05;;
13580;SDS011;6861;46.170;7.222;2023-11-21T11:08:20;1.77;;;0.80;;
13580;SDS011;6861;46.170;7.222;2023-11-21T11:10:54;1.65;;;0.77;;
13580;SDS011;6861;46.170;7.222;2023-11-21T11:13:25;2.78;;;0.90;;
13580;SDS011;6861;46.170;7.222;2023-11-21T11:15:57;4.28;;;1.00;;
13580;SDS011;6861;46.170;7.222;2023-11-21T11:18:28;21.83;;;11.02;;
13580;SDS011;6861;46.170;7.222;2023-11-21T11:20:59;10.85;;;4.63;;
13580;SDS011;6861;46.170;7.222;2023-11-21T11:23:39;3.60;;;1.20;;
13580;SDS011;6861;46.170;7.222;2023-11-21T11:26:20;2.05;;;0.85;;
13580;SDS011;6861;46.170;7.222;2023-11-21T11:29:03;1.80;;;0.65;;
13580;SDS011;6861;46.170;7.222;2023-11-21T11:31:46;2.00;;;0.75;;
13580;SDS011;6861;46.170;7.222;2023-11-21T11:34:24;2.67;;;0.80;;
13580;SDS011;6861;46.170;7.222;2023-11-21T11:37:08;2.80;;;0.82;;
13580;SDS011;6861;46.170;7.222;2023-11-21T11:39:37;3.05;;;0.80;;
13580;SDS011;6861;46.170;7.222;2023-11-21T11:42:11;1.67;;;0.73;;
13580;SDS011;6861;46.170;7.222;2023-11-21T11:44:48;1.70;;;0.70;;
13580;SDS011;6861;46.170;7.222;2023-11-21T11:47:25;1.83;;;0.85;;
13580;SDS011;6861;46.170;7.222;2023-11-21T11:50:02;1.40;;;0.70;;
13580;SDS011;6861;46.170;7.222;2023-11-21T11:52:35;2.67;;;0.60;;
13580;SDS011;6861;46.170;7.222;2023-11-21T11:55:07;1.70;;;0.80;;
13580;SDS011;6861;46.170;7.222;2023-11-21T19:32:01;1.38;;;0.90;;
13580;SDS011;6861;46.170;7.222;2023-11-21T19:34:31;1.27;;;0.90;;
13580;SDS011;6861;46.170;7.222;2023-11-21T19:37:03;1.00;;;0.82;;
13580;SDS011;6861;46.170;7.222;2023-11-21T19:39:32;3.17;;;1.00;;
13580;SDS011;6861;46.170;7.222;2023-11-21T19:42:01;2.33;;;1.00;;
13580;SDS011;6861;46.170;7.222;2023-11-21T19:44:29;1.08;;;0.90;;
13580;SDS011;6861;46.170;7.222;2023-11-21T19:46:58;1.38;;;1.00;;
13580;SDS011;6861;46.170;7.222;2023-11-21T19:49:28;0.85;;;0.60;;
13580;SDS011;6861;46.170;7.222;2023-11-21T19:51:56;1.10;;;0.88;;
13580;SDS011;6861;46.170;7.222;2023-11-21T19:54:25;1.33;;;1.08;;
13580;SDS011;6861;46.170;7.222;2023-11-21T19:56:53;1.20;;;0.80;;
13580;SDS011;6861;46.170;7.222;2023-11-21T19:59:21;1.33;;;0.70;;
13580;SDS011;6861;46.170;7.222;2023-11-21T20:01:50;1.00;;;0.70;;
13580;SDS011;6861;46.170;7.222;2023-11-21T20:04:18;1.13;;;0.80;;
13580;SDS011;6861;46.170;7.222;2023-11-21T20:06:48;0.88;;;0.77;;
13580;SDS011;6861;46.170;7.222;2023-11-21T20:09:22;1.25;;;0.90;;
13580;SDS011;6861;46.170;7.222;2023-11-21T20:11:50;1.10;;;0.77;;
13580;SDS011;6861;46.170;7.222;2023-11-21T20:14:19;1.83;;;0.82;;
13580;SDS011;6861;46.170;7.222;2023-11-21T20:16:47;1.23;;;0.80;;
13580;SDS011;6861;46.170;7.222;2023-11-21T20:19:16;1.85;;;1.00;;
13580;SDS011;6861;46.170;7.222;2023-11-21T20:21:44;1.40;;;0.90;;
13580;SDS011;6861;46.170;7.222;2023-11-21T20:24:14;3.10;;;0.90;;
13580;SDS011;6861;46.170;7.222;2023-11-21T20:26:42;3.88;;;1.50;;
13580;SDS011;6861;46.170;7.222;2023-11-21T20:29:11;2.60;;;2.22;;
13580;SDS011;6861;46.170;7.222;2023-11-21T20:31:40;2.92;;;2.40;;
13580;SDS011;6861;46.170;7.222;2023-11-21T20:34:08;3.95;;;2.72;;
13580;SDS011;6861;46.170;7.222;2023-11-21T20:36:37;5.07;;;2.58;;
13580;SDS011;6861;46.170;7.222;2023-11-21T20:39:05;5.80;;;2.40;;
13580;SDS011;6861;46.170;7.222;2023-11-21T20:41:35;3.03;;;1.88;;
13580;SDS011;6861;46.170;7.222;2023-11-21T20:44:03;4.68;;;2.17;;
13580;SDS011;6861;46.170;7.222;2023-11-21T20:46:39;2.47;;;1.20;;
13580;SDS011;6861;46.170;7.222;2023-11-21T20:49:08;1.48;;;0.93;;
13580;SDS011;6861;46.170;7.222;2023-11-21T20:51:37;1.27;;;1.08;;
13580;SDS011;6861;46.170;7.222;2023-11-21T20:54:06;1.65;;;0.88;;
13580;SDS011;6861;46.170;7.222;2023-11-21T20:56:37;2.88;;;1.50;;
13580;SDS011;6861;46.170;7.222;2023-11-21T20:59:05;2.47;;;1.27;;
13580;SDS011;6861;46.170;7.222;2023-11-21T21:01:34;1.98;;;1.20;;
13580;SDS011;6861;46.170;7.222;2023-11-21T21:04:03;5.88;;;2.60;;
13580;SDS011;6861;46.170;7.222;2023-11-21T21:06:33;4.00;;;2.53;;
13580;SDS011;6861;46.170;7.222;2023-11-21T21:09:04;4.10;;;2.30;;
13580;SDS011;6861;46.170;7.222;2023-11-21T21:11:37;1.38;;;0.90;;
13580;SDS011;6861;46.170;7.222;2023-11-21T21:14:05;3.35;;;1.80;;
13580;SDS011;6861;46.170;7.222;2023-11-21T21:16:37;4.05;;;2.53;;
13580;SDS011;6861;46.170;7.222;2023-11-21T21:19:08;2.00;;;1.20;;
13580;SDS011;6861;46.170;7.222;2023-11-21T21:21:38;1.75;;;1.20;;
13580;SDS011;6861;46.170;7.222;2023-11-21T21:24:07;1.35;;;0.90;;
13580;SDS011;6861;46.170;7.222;2023-11-21T21:26:36;1.08;;;0.80;;
13580;SDS011;6861;46.170;7.222;2023-11-21T21:29:06;1.33;;;0.82;;
13580;SDS011;6861;46.170;7.222;2023-11-21T21:31:36;1.38;;;0.80;;
13580;SDS011;6861;46.170;7.222;2023-11-21T21:34:05;2.50;;;0.93;;
13580;SDS011;6861;46.170;7.222;2023-11-21T21:36:34;1.40;;;1.08;;
13580;SDS011;6861;46.170;7.222;2023-11-21T21:39:02;1.73;;;0.77;;
13580;SDS011;6861;46.170;7.222;2023-11-21T21:41:31;1.25;;;0.70;;
13580;SDS011;6861;46.170;7.222;2023-11-21T21:44:01;1.20;;;0.80;;
13580;SDS011;6861;46.170;7.222;2023-11-21T21:46:29;3.03;;;1.20;;
13580;SDS011;6861;46.170;7.222;2023-11-21T21:48:57;4.63;;;2.47;;
13580;SDS011;6861;46.170;7.222;2023-11-21T21:51:26;6.25;;;3.45;;
13580;SDS011;6861;46.170;7.222;2023-11-21T21:53:54;4.50;;;3.30;;
13580;SDS011;6861;46.170;7.222;2023-11-21T21:56:22;6.47;;;3.92;;
13580;SDS011;6861;46.170;7.222;2023-11-21T21:58:51;6.30;;;4.05;;
13580;SDS011;6861;46.170;7.222;2023-11-21T22:01:22;6.55;;;4.25;;
13580;SDS011;6861;46.170;7.222;2023-11-21T22:03:51;6.90;;;4.30;;
13580;SDS011;6861;46.170;7.222;2023-11-21T22:06:22;6.82;;;4.30;;
13580;SDS011;6861;46.170;7.222;2023-11-21T22:08:50;6.28;;;4.55;;
13580;SDS011;6861;46.170;7.222;2023-11-21T22:11:18;6.53;;;3.17;;
13580;SDS011;6861;46.170;7.222;2023-11-21T22:13:47;4.75;;;3.20;;
13580;SDS011;6861;46.170;7.222;2023-11-21T22:16:15;7.25;;;3.97;;
13580;SDS011;6861;46.170;7.222;2023-11-21T22:18:45;6.72;;;4.13;;
13580;SDS011;6861;46.170;7.222;2023-11-21T22:21:14;4.45;;;3.20;;
13580;SDS011;6861;46.170;7.222;2023-11-21T22:23:44;7.35;;;3.90;;
13580;SDS011;6861;46.170;7.222;2023-11-21T22:26:13;7.43;;;3.72;;
13580;SDS011;6861;46.170;7.222;2023-11-21T22:28:42;4.10;;;3.30;;
13580;SDS011;6861;46.170;7.222;2023-11-21T22:31:11;4.28;;;2.88;;
13580;SDS011;6861;46.170;7.222;2023-11-21T22:33:39;4.03;;;2.60;;
13580;SDS011;6861;46.170;7.222;2023-11-21T22:36:13;4.85;;;2.70;;
13580;SDS011;6861;46.170;7.222;2023-11-21T22:38:42;3.55;;;2.50;;
13580;SDS011;6861;46.170;7.222;2023-11-21T22:41:11;4.03;;;2.40;;
13580;SDS011;6861;46.170;7.222;2023-11-21T22:43:39;3.35;;;2.75;;
13580;SDS011;6861;46.170;7.222;2023-11-21T22:46:08;5.38;;;3.22;;
13580;SDS011;6861;46.170;7.222;2023-11-21T22:48:37;6.53;;;3.65;;
13580;SDS011;6861;46.170;7.222;2023-11-21T22:51:06;3.85;;;3.17;;